Time;durP1;ratioP1;P1;durP2;ratioP2;P2;SDS_P1;SDS_P2;PMS_P1;PMS_P2;Temp;Humidity;BMP_temperature;BMP_pressure;BME280_temperature;BME280_humidity;BME280_pressure;Samples;Min_cycle;Max_cycle;Signal;HPM_P1;HPM_P2
2022/08/26 00:01:55;;;;;;;19.23;17.23;;;;;;;16.67;100.00;96868.22;4980686;28;20318;-53
2022/08/26 00:04:24;;;;;;;21.40;17.53;;;;;;;16.69;100.00;96868.78;4997410;28;20633;-51
2022/08/26 00:06:54;;;;;;;20.47;17.47;;;;;;;16.66;100.00;96857.72;5000587;28;20205;-53
2022/08/26 00:09:23;;;;;;;17.30;15.50;;;;;;;16.61;100.00;96859.22;4930086;28;20597;-52
2022/08/26 00:11:52;;;;;;;17.27;15.50;;;;;;;16.56;100.00;96863.66;4998140;28;20209;-55
2022/08/26 00:14:20;;;;;;;19.10;17.10;;;;;;;16.52;100.00;96857.16;4998147;28;20267;-53
2022/08/26 00:16:53;;;;;;;19.30;17.30;;;;;;;16.48;100.00;96857.63;4988238;28;20525;-52
2022/08/26 00:19:22;;;;;;;20.30;17.93;;;;;;;16.45;100.00;96863.41;5003209;28;20223;-53
2022/08/26 00:21:50;;;;;;;21.43;18.03;;;;;;;16.42;100.00;96858.50;5004478;28;20488;-54
2022/08/26 00:24:21;;;;;;;18.73;16.40;;;;;;;16.45;100.00;96860.72;4962109;28;20269;-57
2022/08/26 00:26:50;;;;;;;19.53;17.33;;;;;;;16.41;100.00;96850.72;5000122;28;20212;-53
2022/08/26 00:29:19;;;;;;;18.70;16.83;;;;;;;16.34;100.00;96854.31;5009519;28;20739;-54
2022/08/26 00:31:48;;;;;;;19.07;17.20;;;;;;;16.34;100.00;96848.16;5002446;28;20398;-49
2022/08/26 00:34:16;;;;;;;22.77;17.23;;;;;;;16.30;100.00;96849.66;4992045;28;20820;-51
2022/08/26 00:36:46;;;;;;;24.53;17.17;;;;;;;16.31;100.00;96852.13;4999369;28;20216;-53
2022/08/26 00:39:20;;;;;;;19.13;17.33;;;;;;;16.27;100.00;96858.94;5007574;28;20807;-55
2022/08/26 00:41:49;;;;;;;20.73;18.40;;;;;;;16.28;100.00;96865.09;4958777;28;20212;-51
2022/08/26 00:44:17;;;;;;;19.77;16.13;;;;;;;16.23;100.00;96863.09;5005850;28;20208;-54
2022/08/26 00:46:48;;;;;;;18.63;16.73;;;;;;;16.17;100.00;96864.84;4998651;28;20385;-54
2022/08/26 00:49:18;;;;;;;18.87;17.10;;;;;;;16.19;100.00;96857.44;4984138;28;20321;-56
2022/08/26 00:51:51;;;;;;;20.20;18.20;;;;;;;16.19;100.00;96856.59;4999834;28;20749;-55
2022/08/26 00:54:24;;;;;;;18.83;16.93;;;;;;;16.32;100.00;96858.25;5001679;28;20243;-52
2022/08/26 00:56:56;;;;;;;21.33;18.90;;;;;;;16.32;100.00;96859.09;4978314;28;20309;-55
2022/08/26 00:59:27;;;;;;;26.00;19.10;;;;;;;16.31;100.00;96853.97;5006931;28;20280;-53
2022/08/26 01:02:00;;;;;;;26.87;20.40;;;;;;;16.35;100.00;96857.81;5005396;28;20196;-53
2022/08/26 01:04:30;;;;;;;20.90;18.63;;;;;;;16.30;100.00;96855.00;4991021;28;20920;-55
2022/08/26 01:06:59;;;;;;;21.00;18.97;;;;;;;16.31;100.00;96856.63;5006015;28;20201;-53
2022/08/26 01:09:29;;;;;;;23.13;18.23;;;;;;;16.29;100.00;96861.41;4988187;28;20225;-52
2022/08/26 01:11:59;;;;;;;23.40;18.70;;;;;;;16.28;100.00;96857.88;4984235;28;20204;-55
2022/08/26 01:14:31;;;;;;;21.23;19.07;;;;;;;16.32;100.00;96861.75;5003191;28;20236;-53
2022/08/26 01:17:01;;;;;;;24.87;19.80;;;;;;;16.30;100.00;96863.03;4998061;28;20633;-53
2022/08/26 01:19:34;;;;;;;27.30;21.67;;;;;;;16.31;100.00;96856.63;4979703;28;20823;-51
2022/08/26 01:22:06;;;;;;;23.23;20.80;;;;;;;16.30;100.00;96861.19;5003822;28;20228;-54
2022/08/26 01:24:36;;;;;;;21.37;19.07;;;;;;;16.28;100.00;96865.09;5001583;28;20296;-51
2022/08/26 01:27:07;;;;;;;21.93;19.90;;;;;;;16.25;100.00;96863.69;4960474;28;20210;-52
2022/08/26 01:29:37;;;;;;;25.00;20.03;;;;;;;16.21;100.00;96865.19;5003684;28;20354;-52
2022/08/26 01:32:07;;;;;;;23.23;20.80;;;;;;;16.18;100.00;96871.84;5005623;28;20695;-52
2022/08/26 01:34:38;;;;;;;21.20;19.17;;;;;;;16.16;100.00;96868.56;4991436;28;20203;-53
2022/08/26 01:37:18;;;;;;;22.30;20.10;;;;;;;16.22;100.00;96869.50;5002626;28;20763;-54
2022/08/26 01:39:50;;;;;;;22.03;19.83;;;;;;;16.19;100.00;96867.28;4998668;28;20557;-52
2022/08/26 01:42:20;;;;;;;23.13;20.60;;;;;;;16.17;100.00;96862.19;4925588;28;20910;-56
2022/08/26 01:44:54;;;;;;;24.33;21.67;;;;;;;16.17;100.00;96859.50;4965570;28;20840;-51
2022/08/26 01:47:24;;;;;;;23.47;20.43;;;;;;;16.23;100.00;96868.47;4974638;28;20585;-54
2022/08/26 01:49:55;;;;;;;25.77;21.10;;;;;;;16.17;100.00;96872.88;5003450;28;20814;-50
2022/08/26 01:52:26;;;;;;;22.23;19.93;;;;;;;16.08;100.00;96866.19;4994532;28;20212;-52
2022/08/26 01:54:57;;;;;;;22.23;19.93;;;;;;;16.15;100.00;96860.78;5012651;28;20235;-50
2022/08/26 01:57:27;;;;;;;23.23;20.73;;;;;;;16.16;100.00;96860.56;5015822;28;20409;-51
2022/08/26 01:59:57;;;;;;;22.80;20.70;;;;;;;16.14;100.00;96861.81;4962668;28;20344;-52
2022/08/26 02:02:26;;;;;;;22.80;19.93;;;;;;;16.14;100.00;96862.63;5010070;28;20200;-51
2022/08/26 02:04:58;;;;;;;22.03;19.03;;;;;;;16.13;100.00;96869.03;5002883;28;20209;-51
2022/08/26 02:07:26;;;;;;;25.17;21.17;;;;;;;16.13;100.00;96863.69;5012288;28;20208;-55
2022/08/26 02:09:56;;;;;;;24.57;21.77;;;;;;;16.13;100.00;96865.53;4981239;28;20767;-52
2022/08/26 02:12:25;;;;;;;25.80;20.37;;;;;;;16.12;100.00;96862.06;5006379;28;20516;-52
2022/08/26 02:14:55;;;;;;;28.83;21.43;;;;;;;16.05;100.00;96848.78;5003735;28;20240;-53
2022/08/26 02:17:26;;;;;;;22.87;20.63;;;;;;;16.09;100.00;96861.69;4957722;28;20248;-53
2022/08/26 02:19:55;;;;;;;27.40;22.03;;;;;;;16.03;100.00;96860.72;4998907;28;20236;-53
2022/08/26 02:22:25;;;;;;;24.47;21.87;;;;;;;16.02;100.00;96867.09;5007909;28;20212;-53
2022/08/26 02:24:57;;;;;;;23.30;20.37;;;;;;;16.03;100.00;96858.88;4981586;28;20883;-52
2022/08/26 02:27:30;;;;;;;26.27;22.43;;;;;;;16.05;100.00;96861.31;5010834;28;20302;-53
2022/08/26 02:30:04;;;;;;;23.93;20.00;;;;;;;16.06;100.00;96858.44;5007903;28;20436;-56
2022/08/26 02:32:33;;;;;;;24.50;21.93;;;;;;;16.03;100.00;96856.22;4955521;28;20266;-56
2022/08/26 02:35:02;;;;;;;23.13;20.80;;;;;;;15.96;100.00;96855.50;5004937;28;20709;-55
2022/08/26 02:37:30;;;;;;;24.73;20.90;;;;;;;15.89;100.00;96860.91;5013664;28;20242;-52
2022/08/26 02:40:02;;;;;;;22.90;20.50;;;;;;;15.81;100.00;96842.50;4987824;28;20376;-49
2022/08/26 02:42:31;;;;;;;23.20;20.70;;;;;;;15.75;100.00;96846.88;5007703;28;20223;-54
2022/08/26 02:44:59;;;;;;;22.00;19.73;;;;;;;15.74;100.00;96855.94;5005861;28;20208;-52
2022/08/26 02:47:27;;;;;;;26.77;19.80;;;;;;;15.73;100.00;96854.31;4962791;28;20298;-51
2022/08/26 02:49:59;;;;;;;22.30;20.20;;;;;;;15.73;100.00;96862.31;5000829;28;20224;-51
2022/08/26 02:52:27;;;;;;;25.27;21.87;;;;;;;15.76;100.00;96861.06;5009254;28;20204;-53
2022/08/26 02:54:55;;;;;;;24.80;22.10;;;;;;;15.76;100.00;96866.41;4984764;28;20286;-48
2022/08/26 02:57:25;;;;;;;25.07;20.67;;;;;;;15.81;100.00;96855.84;5010652;28;20670;-54
2022/08/26 02:59:53;;;;;;;28.33;22.43;;;;;;;15.72;100.00;96850.00;5005888;28;20642;-52
2022/08/26 03:02:21;;;;;;;25.60;22.37;;;;;;;15.78;100.00;96864.31;5008850;28;20684;-50
2022/08/26 03:04:50;;;;;;;31.30;23.63;;;;;;;15.76;100.00;96866.41;4953863;28;20703;-52
2022/08/26 03:07:29;;;;;;;25.67;22.60;;;;;;;15.79;100.00;96863.28;5012913;28;20202;-54
2022/08/26 03:09:58;;;;;;;27.87;22.50;;;;;;;15.75;100.00;96865.59;4986987;28;21955;-54
2022/08/26 03:12:29;;;;;;;28.27;22.10;;;;;;;15.69;100.00;96855.81;5008267;28;20205;-53
2022/08/26 03:14:57;;;;;;;29.57;21.70;;;;;;;15.69;100.00;96861.13;5003051;28;20303;-51
2022/08/26 03:17:25;;;;;;;23.87;21.47;;;;;;;15.73;100.00;96858.84;5008445;28;20778;-54
2022/08/26 03:19:54;;;;;;;22.87;20.53;;;;;;;15.71;100.00;96852.88;4952222;28;21399;-51
2022/08/26 03:22:24;;;;;;;25.00;21.77;;;;;;;15.68;100.00;96854.16;5011212;28;20208;-56
2022/08/26 03:24:54;;;;;;;23.47;20.83;;;;;;;15.70;100.00;96843.25;5006879;28;20823;-51
2022/08/26 03:27:22;;;;;;;24.80;20.17;;;;;;;15.71;100.00;96844.88;4985589;28;20289;-52
2022/08/26 03:32:39;;;;;;;24.17;21.07;;;;;;;15.88;100.00;96842.44;5005960;28;20236;-51
2022/08/26 03:35:08;;;;;;;27.50;21.80;;;;;;;15.89;100.00;96842.22;4958236;28;20742;-54
2022/08/26 03:37:37;;;;;;;21.90;19.53;;;;;;;15.93;100.00;96841.75;5002372;28;20221;-54
2022/08/26 03:40:07;;;;;;;22.63;20.40;;;;;;;15.96;100.00;96838.63;5010100;28;20440;-54
2022/08/26 03:42:36;;;;;;;22.03;19.97;;;;;;;16.00;100.00;96845.97;4981063;28;20212;-55
2022/08/26 03:45:09;;;;;;;25.20;22.50;;;;;;;16.03;100.00;96842.84;4979597;28;20201;-52
2022/08/26 03:47:37;;;;;;;23.87;21.13;;;;;;;16.07;100.00;96837.84;5006594;28;20437;-54
2022/08/26 03:50:07;;;;;;;23.33;20.87;;;;;;;16.06;100.00;96833.53;4955522;28;20228;-53
2022/08/26 03:52:37;;;;;;;22.97;20.67;;;;;;;16.02;100.00;96833.19;4940508;28;20239;-48
2022/08/26 03:55:11;;;;;;;26.00;22.43;;;;;;;16.05;100.00;96832.75;4990703;28;20907;-49
2022/08/26 03:57:39;;;;;;;22.20;19.83;;;;;;;16.06;100.00;96837.03;5003252;28;20209;-53
2022/08/26 04:00:14;;;;;;;21.53;19.40;;;;;;;16.05;100.00;96834.59;4989728;28;20436;-52
2022/08/26 04:02:47;;;;;;;23.67;21.27;;;;;;;16.05;100.00;96837.25;5004728;28;20242;-49
2022/08/26 04:05:17;;;;;;;23.53;21.03;;;;;;;16.03;100.00;96831.34;5007330;28;20438;-53
2022/08/26 04:07:46;;;;;;;22.43;20.13;;;;;;;16.00;100.00;96837.97;4975244;28;20287;-52
2022/08/26 04:10:17;;;;;;;22.50;20.10;;;;;;;16.04;100.00;96833.78;4965324;28;20696;-52
2022/08/26 04:12:47;;;;;;;21.77;19.77;;;;;;;15.89;100.00;96820.84;4987402;28;20233;-54
2022/08/26 04:15:20;;;;;;;22.07;19.83;;;;;;;16.02;100.00;96840.38;4974982;28;20244;-55
2022/08/26 04:17:48;;;;;;;21.80;19.33;;;;;;;16.00;100.00;96834.47;4999641;28;20231;-52
2022/08/26 04:20:17;;;;;;;21.30;19.00;;;;;;;16.03;100.00;96836.69;5004174;28;20223;-52
2022/08/26 04:22:45;;;;;;;22.03;19.73;;;;;;;15.95;100.00;96829.81;4998821;28;20209;-50
2022/08/26 04:25:15;;;;;;;20.50;18.40;;;;;;;15.97;100.00;96827.72;4952362;28;20565;-50
2022/08/26 04:27:44;;;;;;;21.33;19.20;;;;;;;15.95;100.00;96826.31;4991973;28;20216;-50
2022/08/26 04:30:16;;;;;;;23.33;19.50;;;;;;;15.91;100.00;96828.66;4975922;28;20255;-52
2022/08/26 04:32:45;;;;;;;21.23;19.20;;;;;;;15.93;100.00;96833.75;4977529;28;20212;-49
2022/08/26 04:35:13;;;;;;;20.33;18.40;;;;;;;15.94;100.00;96822.00;5003183;28;20621;-52
2022/08/26 04:37:42;;;;;;;21.10;18.87;;;;;;;15.97;100.00;96826.91;5008672;28;20824;-51
2022/08/26 04:40:11;;;;;;;21.53;18.60;;;;;;;15.95;100.00;96837.00;4953363;28;21181;-52
2022/08/26 04:42:40;;;;;;;21.10;18.83;;;;;;;15.89;100.00;96828.84;5002110;28;20309;-51
2022/08/26 04:45:09;;;;;;;24.50;20.60;;;;;;;15.91;100.00;96832.13;4983295;28;20708;-53
2022/08/26 04:47:39;;;;;;;21.87;19.70;;;;;;;16.03;100.00;96826.81;4977994;28;20794;-48
2022/08/26 04:50:08;;;;;;;22.60;19.10;;;;;;;16.08;100.00;96833.34;5000969;28;20250;-48
2022/08/26 04:52:37;;;;;;;22.57;18.83;;;;;;;16.01;100.00;96828.06;5005088;28;20204;-50
2022/08/26 04:55:06;;;;;;;21.37;19.17;;;;;;;16.05;100.00;96832.75;4952497;28;20839;-49
2022/08/26 04:57:35;;;;;;;22.13;19.17;;;;;;;16.08;100.00;96834.13;4971292;28;21520;-52
2022/08/26 05:00:05;;;;;;;21.57;19.17;;;;;;;16.06;100.00;96829.03;4982565;28;20268;-53
2022/08/26 05:02:33;;;;;;;22.17;18.83;;;;;;;16.15;100.00;96840.22;4966242;28;20208;-52
2022/08/26 05:05:05;;;;;;;25.73;20.00;;;;;;;16.12;100.00;96829.16;4982102;28;20209;-54
2022/08/26 05:07:34;;;;;;;21.37;19.20;;;;;;;16.15;100.00;96836.72;5005758;28;20653;-53
2022/08/26 05:10:04;;;;;;;21.50;19.27;;;;;;;16.19;100.00;96833.38;5002434;28;21040;-51
2022/08/26 05:12:35;;;;;;;21.43;19.23;;;;;;;16.24;100.00;96834.53;4948852;28;20754;-53
2022/08/26 05:15:05;;;;;;;22.03;19.30;;;;;;;16.28;100.00;96833.84;4982522;28;20651;-54
2022/08/26 05:17:33;;;;;;;20.83;18.70;;;;;;;16.30;100.00;96844.31;4973493;28;20430;-51
2022/08/26 05:20:05;;;;;;;21.37;19.13;;;;;;;16.27;100.00;96842.91;4987362;28;20252;-53
2022/08/26 05:22:33;;;;;;;22.83;20.40;;;;;;;16.33;100.00;96843.84;5003088;28;20422;-54
2022/08/26 05:25:01;;;;;;;21.87;19.67;;;;;;;16.32;100.00;96836.88;5004339;28;20243;-49
2022/08/26 05:27:30;;;;;;;22.90;19.83;;;;;;;16.46;100.00;96840.97;4914981;28;20216;-56
2022/08/26 05:29:59;;;;;;;22.83;20.67;;;;;;;16.52;100.00;96839.22;4978989;28;20235;-52
2022/08/26 05:32:27;;;;;;;23.70;21.10;;;;;;;16.71;100.00;96842.63;4974767;28;20387;-55
2022/08/26 05:34:56;;;;;;;22.73;19.77;;;;;;;16.75;100.00;96834.97;4963122;28;20329;-54
2022/08/26 05:37:26;;;;;;;28.80;21.13;;;;;;;16.80;100.00;96851.13;5003618;28;20200;-55
2022/08/26 05:39:54;;;;;;;27.17;20.27;;;;;;;16.91;100.00;96844.16;4997987;28;20321;-54
2022/08/26 05:42:23;;;;;;;23.53;19.67;;;;;;;17.00;100.00;96840.09;4954826;28;20217;-54
2022/08/26 05:44:52;;;;;;;23.00;20.03;;;;;;;16.86;100.00;96844.03;4985400;28;20250;-51
2022/08/26 05:47:23;;;;;;;24.70;20.33;;;;;;;16.78;100.00;96845.19;4960497;28;20217;-48
2022/08/26 05:49:51;;;;;;;22.20;20.00;;;;;;;16.78;100.00;96845.19;4969178;28;20242;-55
2022/08/26 05:52:20;;;;;;;24.50;20.63;;;;;;;16.82;100.00;96845.53;4998360;28;20225;-53
2022/08/26 05:54:53;;;;;;;27.20;21.73;;;;;;;16.84;100.00;96841.59;5010543;28;20201;-54
2022/08/26 05:57:22;;;;;;;22.17;20.03;;;;;;;16.91;100.00;96841.47;4951113;28;20921;-49
2022/08/26 05:59:50;;;;;;;26.03;19.87;;;;;;;16.93;100.00;96832.16;4950346;28;20763;-54
2022/08/26 06:02:19;;;;;;;21.93;19.63;;;;;;;17.17;100.00;96844.72;4997229;28;20210;-49
2022/08/26 06:04:47;;;;;;;26.07;20.23;;;;;;;17.12;100.00;96825.88;4988771;28;20302;-54
2022/08/26 06:07:16;;;;;;;23.63;19.70;;;;;;;17.21;100.00;96838.69;5004298;28;20247;-52
2022/08/26 06:09:45;;;;;;;23.70;20.40;;;;;;;17.29;100.00;96831.34;4979259;28;20236;-50
2022/08/26 06:12:15;;;;;;;20.87;18.93;;;;;;;17.33;100.00;96829.81;5001305;28;20842;-53
2022/08/26 06:14:45;;;;;;;22.60;20.27;;;;;;;17.43;100.00;96837.25;4957698;28;20960;-54
2022/08/26 06:17:15;;;;;;;23.17;20.03;;;;;;;17.56;100.00;96836.97;4998781;28;20208;-49
2022/08/26 06:19:44;;;;;;;22.40;20.23;;;;;;;17.72;100.00;96832.72;4998564;28;20351;-50
2022/08/26 06:27:38;;;;;;;26.23;22.17;;;;;;;17.78;100.00;96844.38;5001663;28;20287;-55
2022/08/26 06:30:08;;;;;;;23.03;20.77;;;;;;;17.77;100.00;96843.53;5004675;28;20228;-53
2022/08/26 06:32:37;;;;;;;23.90;20.80;;;;;;;17.88;100.00;96839.19;4954288;28;20628;-53
2022/08/26 06:35:06;;;;;;;25.40;20.23;;;;;;;17.97;100.00;96830.75;5010530;28;20209;-50
2022/08/26 06:37:39;;;;;;;24.83;19.80;;;;;;;18.22;100.00;96828.56;5000014;28;20310;-54
2022/08/26 06:40:09;;;;;;;23.17;19.53;;;;;;;18.40;100.00;96831.28;5010686;28;20231;-50
2022/08/26 06:42:39;;;;;;;22.17;20.00;;;;;;;18.58;100.00;96835.59;4979001;28;21186;-50
2022/08/26 06:45:08;;;;;;;27.17;22.57;;;;;;;18.66;100.00;96837.84;5008447;28;20258;-52
2022/08/26 06:47:37;;;;;;;26.73;20.20;;;;;;;18.90;100.00;96835.78;4954907;28;20569;-50
2022/08/26 06:50:06;;;;;;;21.40;18.30;;;;;;;18.97;100.00;96835.63;5005673;28;20275;-53
2022/08/26 06:52:34;;;;;;;22.63;20.07;;;;;;;18.82;100.00;96830.06;5000964;28;20325;-48
2022/08/26 06:55:03;;;;;;;24.23;18.87;;;;;;;18.99;100.00;96841.59;5010540;28;20197;-52
2022/08/26 06:57:33;;;;;;;23.90;19.23;;;;;;;18.98;100.00;96831.91;5006884;28;20207;-50
2022/08/26 07:00:08;;;;;;;26.50;20.13;;;;;;;18.97;100.00;96832.16;5008039;28;20378;-53
2022/08/26 07:02:36;;;;;;;22.63;19.37;;;;;;;18.95;100.00;96835.06;4953712;28;20762;-55
2022/08/26 07:05:05;;;;;;;21.60;19.30;;;;;;;18.86;100.00;96833.88;5009337;28;20212;-54
2022/08/26 07:07:34;;;;;;;21.00;18.77;;;;;;;19.02;100.00;96832.25;5003121;28;20261;-47
2022/08/26 07:10:03;;;;;;;21.07;18.83;;;;;;;19.13;100.00;96830.50;5011291;28;20248;-51
2022/08/26 07:12:31;;;;;;;26.73;18.13;;;;;;;19.18;100.00;96828.69;5003885;28;20322;-50
2022/08/26 07:14:59;;;;;;;22.93;18.50;;;;;;;19.14;100.00;96835.63;5010014;28;20236;-51
2022/08/26 07:17:29;;;;;;;19.90;17.27;;;;;;;19.28;100.00;96836.09;4956401;28;21293;-53
2022/08/26 07:19:57;;;;;;;19.10;16.97;;;;;;;19.24;100.00;96829.59;5000489;28;20259;-57
2022/08/26 07:22:26;;;;;;;22.60;18.30;;;;;;;19.31;100.00;96840.97;5003797;28;20205;-55
2022/08/26 07:24:54;;;;;;;21.70;18.33;;;;;;;19.24;100.00;96841.13;5002564;28;20207;-51
2022/08/26 07:27:22;;;;;;;21.70;18.07;;;;;;;19.26;100.00;96840.06;5001345;28;20204;-53
2022/08/26 07:29:50;;;;;;;23.67;17.80;;;;;;;19.36;100.00;96834.84;5003033;28;20361;-55
2022/08/26 07:32:19;;;;;;;25.40;18.10;;;;;;;19.53;100.00;96835.59;4957432;28;20662;-55
2022/08/26 07:34:51;;;;;;;19.77;17.10;;;;;;;19.57;100.00;96841.28;4998961;28;20197;-52
2022/08/26 07:37:19;;;;;;;19.57;17.50;;;;;;;19.83;100.00;96838.88;5003548;28;20763;-51
2022/08/26 07:39:47;;;;;;;18.10;16.30;;;;;;;19.94;100.00;96842.50;5003239;28;20235;-56
2022/08/26 07:42:18;;;;;;;17.83;16.03;;;;;;;20.45;100.00;96833.28;5007900;28;20301;-52
2022/08/26 07:44:46;;;;;;;19.57;16.23;;;;;;;21.07;100.00;96831.91;5004563;28;20469;-58
2022/08/26 07:47:15;;;;;;;20.30;16.07;;;;;;;21.46;100.00;96825.34;5005872;28;20262;-54
2022/08/26 07:49:55;;;;;;;17.50;15.67;;;;;;;21.57;100.00;96828.06;4984104;28;20589;-52
2022/08/26 07:52:25;;;;;;;21.93;15.43;;;;;;;22.18;100.00;96827.47;5000615;28;20224;-51
2022/08/26 07:54:55;;;;;;;17.10;15.30;;;;;;;22.82;100.00;96833.44;5004805;28;20287;-55
2022/08/26 07:57:23;;;;;;;20.00;15.20;;;;;;;23.15;100.00;96827.72;4999845;28;20727;-53
2022/08/26 07:59:51;;;;;;;14.83;13.40;;;;;;;23.70;100.00;96826.97;4997821;28;20467;-56
2022/08/26 08:02:22;;;;;;;20.13;15.23;;;;;;;23.89;100.00;96823.66;4983988;28;20200;-51
2022/08/26 08:04:51;;;;;;;14.67;13.23;;;;;;;23.97;100.00;96828.47;4980951;28;20402;-55
2022/08/26 08:07:21;;;;;;;20.40;13.03;;;;;;;23.57;100.00;96825.69;4933553;28;20219;-49
2022/08/26 08:10:06;;;;;;;14.70;13.17;;;;;;;24.24;100.00;96827.22;5002160;28;20865;-54
2022/08/26 08:12:38;;;;;;;16.83;13.30;;;;;;;24.52;100.00;96833.81;4983540;28;20238;-52
2022/08/26 08:15:08;;;;;;;18.47;12.53;;;;;;;24.68;100.00;96828.25;5006371;28;20449;-52
2022/08/26 08:17:36;;;;;;;14.13;12.27;;;;;;;24.85;100.00;96825.97;5004686;28;20209;-48
2022/08/26 08:20:06;;;;;;;13.80;11.97;;;;;;;24.84;100.00;96823.53;5006235;28;20542;-51
2022/08/26 08:22:36;;;;;;;13.33;11.70;;;;;;;25.03;100.00;96818.19;4937218;28;20521;-51
2022/08/26 08:25:05;;;;;;;13.27;11.10;;;;;;;24.95;100.00;96816.91;5001340;28;21131;-49
2022/08/26 08:27:35;;;;;;;14.50;11.33;;;;;;;24.99;100.00;96815.25;5005498;28;20212;-51
2022/08/26 08:30:04;;;;;;;11.50;10.17;;;;;;;25.00;100.00;96810.63;4993315;28;20303;-52
2022/08/26 08:32:32;;;;;;;14.00;10.93;;;;;;;25.26;100.00;96813.09;5006156;28;20224;-53
2022/08/26 08:35:02;;;;;;;12.17;10.37;;;;;;;25.44;100.00;96812.31;5003100;28;20468;-54
2022/08/26 08:37:40;;;;;;;12.37;10.87;;;;;;;25.09;100.00;96808.13;4982091;28;20216;-50
2022/08/26 08:40:12;;;;;;;13.23;11.33;;;;;;;24.80;100.00;96809.75;4990841;28;20225;-49
2022/08/26 08:42:45;;;;;;;13.23;9.60;;;;;;;25.16;100.00;96808.56;5000811;28;20209;-47
2022/08/26 08:45:16;;;;;;;11.50;10.00;;;;;;;25.30;100.00;96811.41;4960180;28;20208;-49
2022/08/26 08:47:49;;;;;;;11.77;10.50;;;;;;;25.29;100.00;96796.25;5004842;28;20209;-55
2022/08/26 08:50:24;;;;;;;12.87;10.70;;;;;;;25.11;100.00;96809.44;4997990;28;20913;-54
2022/08/26 08:53:02;;;;;;;12.70;10.23;;;;;;;25.12;100.00;96794.78;4934943;28;20224;-58
2022/08/26 08:55:41;;;;;;;13.63;11.17;;;;;;;24.76;100.00;96797.06;5003430;28;20262;-53
2022/08/26 08:58:14;;;;;;;11.87;9.80;;;;;;;24.52;100.00;96785.06;5004754;28;20278;-52
2022/08/26 09:00:50;;;;;;;12.47;9.73;;;;;;;24.54;100.00;96795.59;4974656;28;20678;-48
2022/08/26 09:03:29;;;;;;;13.07;10.03;;;;;;;24.50;100.00;96792.66;5009284;28;20212;-50
2022/08/26 09:05:58;;;;;;;14.30;11.00;;;;;;;24.18;100.00;96785.88;5003959;28;20317;-53
2022/08/26 09:08:33;;;;;;;12.77;9.97;;;;;;;24.28;100.00;96779.59;4974001;28;20224;-53
2022/08/26 09:11:03;;;;;;;11.60;10.17;;;;;;;24.63;100.00;96787.66;4999539;28;20872;-54
2022/08/26 09:13:34;;;;;;;13.97;10.43;;;;;;;24.82;100.00;96783.19;5000230;28;20436;-49
2022/08/26 09:16:07;;;;;;;11.57;10.40;;;;;;;24.90;100.00;96787.16;4983312;28;20264;-52
2022/08/26 09:18:50;;;;;;;15.87;10.77;;;;;;;25.12;100.00;96775.81;5000288;28;20259;-53
2022/08/26 09:21:22;;;;;;;13.37;9.80;;;;;;;25.29;100.00;96775.34;5007641;28;20722;-49
2022/08/26 09:23:55;;;;;;;15.87;10.20;;;;;;;25.47;100.00;96772.19;5003546;28;20204;-50
2022/08/26 09:26:26;;;;;;;16.37;10.23;;;;;;;25.33;100.00;96774.75;4954019;28;20591;-48
2022/08/26 09:29:00;;;;;;;11.53;10.50;;;;;;;25.23;100.00;96773.00;5008093;28;20223;-49
2022/08/26 09:31:30;;;;;;;16.47;11.33;;;;;;;25.08;100.00;96773.97;4988095;28;20823;-51
2022/08/26 09:34:14;;;;;;;12.37;10.50;;;;;;;25.44;100.00;96765.41;5001139;28;20225;-56
2022/08/26 09:36:47;;;;;;;17.80;16.10;;;;;;;25.65;100.00;96755.13;5009931;28;20826;-53
2022/08/26 09:39:29;;;;;;;13.20;11.73;;;;;;;26.23;100.00;96753.19;5003380;28;20228;-49
2022/08/26 09:42:11;;;;;;;15.50;10.27;;;;;;;26.31;100.00;96754.44;4959116;28;20216;-56
2022/08/26 09:44:56;;;;;;;14.77;9.77;;;;;;;26.58;100.00;96756.41;5004532;28;20281;-52
2022/08/26 09:47:26;;;;;;;15.97;11.17;;;;;;;26.56;100.00;96752.41;4991281;28;20296;-48
2022/08/26 09:50:00;;;;;;;13.37;10.30;;;;;;;26.47;100.00;96754.16;5001794;28;20220;-54
2022/08/26 09:52:29;;;;;;;12.50;10.13;;;;;;;26.51;100.00;96752.47;4998501;28;20213;-55
2022/08/26 09:55:06;;;;;;;15.83;10.37;;;;;;;26.09;100.00;96744.97;5004366;28;20209;-54
2022/08/26 09:57:35;;;;;;;14.57;10.87;;;;;;;26.01;100.00;96737.50;4956404;28;20319;-52
2022/08/26 10:00:23;;;;;;;17.90;10.77;;;;;;;25.37;100.00;96735.13;5006630;28;20237;-54
2022/08/26 10:02:52;;;;;;;10.70;8.93;;;;;;;25.62;100.00;96730.50;5005383;28;20211;-55
2022/08/26 10:05:31;;;;;;;13.87;11.47;;;;;;;25.45;100.00;96720.94;4986065;28;20231;-52
2022/08/26 10:08:00;;;;;;;18.73;10.93;;;;;;;25.56;100.00;96721.59;5010899;28;20250;-50
2022/08/26 10:10:33;;;;;;;13.23;10.20;;;;;;;25.43;100.00;96723.94;5009844;28;20231;-48
2022/08/26 10:13:05;;;;;;;13.33;10.33;;;;;;;25.79;100.00;96724.53;4950497;28;20350;-53
2022/08/26 10:15:43;;;;;;;16.00;10.40;;;;;;;25.74;100.00;96730.84;4974708;28;20240;-55
2022/08/26 10:18:20;;;;;;;14.17;10.37;;;;;;;25.95;100.00;96714.25;4984640;28;20204;-50
2022/08/26 10:20:54;;;;;;;12.00;9.77;;;;;;;26.75;100.00;96718.91;4970446;28;20219;-51
2022/08/26 10:23:25;;;;;;;12.97;9.60;;;;;;;27.16;100.00;96708.06;4993037;28;20482;-50
2022/08/26 10:25:58;;;;;;;13.57;9.77;;;;;;;27.45;100.00;96712.31;5003605;28;20314;-51
2022/08/26 10:28:32;;;;;;;12.53;9.50;;;;;;;27.29;97.06;96706.44;4942436;28;20238;-56
2022/08/26 10:31:04;;;;;;;14.03;10.30;;;;;;;27.57;93.17;96694.72;4987690;28;20678;-54
2022/08/26 10:33:33;;;;;;;12.07;8.93;;;;;;;27.65;92.60;96691.25;5010443;28;20383;-49
2022/08/26 10:36:05;;;;;;;14.37;9.87;;;;;;;28.21;95.73;96690.25;4990707;28;21783;-52
2022/08/26 10:38:43;;;;;;;18.00;9.47;;;;;;;27.87;87.44;96679.56;4995625;28;20313;-47
2022/08/26 10:41:14;;;;;;;13.37;9.50;;;;;;;27.57;91.74;96668.28;5006013;28;21008;-50
2022/08/26 10:43:47;;;;;;;12.60;8.83;;;;;;;27.82;96.52;96668.81;4956204;28;20204;-52
2022/08/26 10:46:21;;;;;;;12.73;8.00;;;;;;;27.77;92.58;96665.41;4995578;28;20216;-50
2022/08/26 10:48:56;;;;;;;13.70;8.87;;;;;;;27.56;91.11;96671.34;4987446;28;20261;-51
2022/08/26 10:51:30;;;;;;;14.07;8.43;;;;;;;27.59;93.07;96668.00;4995931;28;20209;-52
2022/08/26 10:54:02;;;;;;;12.70;8.40;;;;;;;28.09;89.49;96675.25;4984939;28;20432;-52
2022/08/26 10:56:42;;;;;;;12.80;8.87;;;;;;;28.35;90.11;96682.00;5004175;28;20685;-51
2022/08/26 10:59:18;;;;;;;14.10;8.83;;;;;;;29.11;88.80;96677.47;4983285;28;21481;-47
2022/08/26 11:01:51;;;;;;;11.03;8.97;;;;;;;29.05;77.44;96657.75;4945188;28;21008;-50
2022/08/26 11:04:42;;;;;;;13.93;9.00;;;;;;;29.62;79.68;96660.72;5007731;28;20196;-50
2022/08/26 11:07:36;;;;;;;14.97;8.57;;;;;;;28.96;72.71;96655.00;4993773;28;20220;-50
2022/08/26 11:10:12;;;;;;;12.30;8.07;;;;;;;28.67;76.11;96664.50;4990707;28;20255;-49
2022/08/26 11:12:57;;;;;;;9.83;8.80;;;;;;;28.65;74.19;96661.28;4969487;28;20204;-50
2022/08/26 11:16:07;;;;;;;10.37;8.50;;;;;;;28.49;79.67;96646.47;4982014;28;20619;-47
2022/08/26 11:18:47;;;;;;;11.77;8.83;;;;;;;28.19;84.15;96654.34;4967363;28;20232;-47
2022/08/26 11:21:52;;;;;;;10.07;8.50;;;;;;;28.23;81.63;96645.25;5001672;28;20635;-50
2022/08/26 11:24:44;;;;;;;11.27;8.23;;;;;;;28.29;81.01;96651.34;5005610;28;20208;-49
2022/08/26 11:27:54;;;;;;;11.70;9.07;;;;;;;28.19;86.83;96657.06;4992529;28;20702;-49
2022/08/26 11:30:55;;;;;;;12.00;9.43;;;;;;;27.74;86.60;96647.78;4980033;28;20236;-47
2022/08/26 11:33:58;;;;;;;14.33;8.83;;;;;;;27.57;90.55;96651.97;4944762;28;20227;-48
2022/08/26 11:36:40;;;;;;;12.63;9.40;;;;;;;27.16;92.93;96636.56;5003681;28;20309;-45
2022/08/26 11:39:18;;;;;;;12.30;8.97;;;;;;;26.71;98.04;96639.94;4990218;28;20682;-49
2022/08/26 11:41:48;;;;;;;19.60;9.70;;;;;;;26.67;99.70;96638.91;4987905;28;20739;-50